• Join FlightAware (Why Join?)
  • Login
  • US Flag 
03:48PM EDT


 

Airport Tracker/Info


-or-


 

Live Flight TrackerFlight Track Log ✈ N860BA ✈ 21-Oct-2013 ✈ KPHX - KFAT

Flight Track Log - Related Links

Times and Time Zones

All times are in EDT time to prevent confusion due to time zone crossing. See the N860BA flight status page for this flight to view local times or setup timezone preferences in your user account.

Time Position Orientation Groundspeed Altitude Reporting Facility
EDT Latitude Longitude Course Direction KTS MPH feet Rate Location/Type
11:47PM 33.4000 -112.1167 244° Southwest 250 288 5,300  Level Phoenix TRACON
11:48PM 33.4000 -112.2000 270° West 274 315 8,300 3,240 Climbing Phoenix TRACON
11:49PM 33.4056 -112.3172 273° West 296 341 12,700 3,000 Climbing Albuquerque Center
11:50PM 33.4161 -112.4239 277° West 318 366 15,800 2,580 Climbing Albuquerque Center
11:51PM 33.4258 -112.5317 276° West 325 374 18,000 1,920 Climbing Albuquerque Center
11:52PM 33.4386 -112.6631 277° West 362 417 19,800 1,800 Climbing Albuquerque Center
11:53PM 33.4500 -112.7925 276° West 384 442 21,700 1,860 Climbing Albuquerque Center
11:54PM 33.4722 -112.9269 281° West 404 465 23,600 2,100 Climbing Albuquerque Center
11:55PM 33.5033 -113.0861 283° West 411 473 26,000 2,160 Climbing Albuquerque Center
11:56PM 33.5303 -113.2236 283° West 420 483 28,000 1,920 Climbing Albuquerque Center
11:57PM 33.5561 -113.3586 283° West 420 483 30,000 1,980 Climbing Albuquerque Center
11:58PM 33.5806 -113.4925 282° West 416 479 32,100 1,680 Climbing Albuquerque Center
11:59PM 33.6056 -113.6244 283° West 410 472 33,500 1,020 Climbing Albuquerque Center
12:00AM 33.6294 -113.7567 282° West 416 479 34,200 600 Climbing Albuquerque Center
12:01AM 33.6558 -113.9003 282° West 433 498 34,800 600 Climbing Albuquerque Center
12:03AM 33.6839 -114.0469 283° West 446 513 35,500 600 Climbing Albuquerque Center
12:04AM 33.7094 -114.1956 282° West 452 520 36,100 540 Climbing Albuquerque Center
12:05AM 33.7369 -114.3492 282° West 458 527 36,700 540 Climbing Albuquerque Center
12:06AM 33.7661 -114.4997 283° West 462 532 37,300 600 Climbing Albuquerque Center
12:07AM 33.8125 -114.6697 288° West 464 534 38,000 300 Climbing Los Angeles Center
12:08AM 33.8508 -114.8186 287° West 466 536 38,000  Level Los Angeles Center
12:09AM 33.8964 -114.9942 287° West 461 531 38,000  Level Los Angeles Center
12:10AM 33.9333 -115.1378 287° West 453 521 38,000  Level Los Angeles Center
12:11AM 33.9683 -115.2808 286° West 448 516 38,000  Level Los Angeles Center
12:12AM 33.9961 -115.3950 286° West 446 513 38,000  Level Los Angeles Center
12:13AM 34.0394 -115.5642 287° West 442 509 38,000  Level Los Angeles Center
12:14AM 34.0739 -115.7053 286° West 441 507 38,000  Level Los Angeles Center
12:15AM 34.1081 -115.8458 286° West 440 506 38,000  Level Los Angeles Center
12:16AM 34.1439 -115.9919 287° West 435 501 38,000  Level Los Angeles Center
12:17AM 34.1783 -116.1333 286° West 438 504 38,000  Level Los Angeles Center
12:18AM 34.2119 -116.2742 286° West 437 503 38,000  Level Los Angeles Center
12:19AM 34.2403 -116.3881 287° West 441 507 38,000  Level Los Angeles Center
12:20AM 34.2811 -116.5597 286° West 442 509 38,000  Level Los Angeles Center
12:21AM 34.3233 -116.7308 287° West 443 510 38,000  Level Los Angeles Center
12:22AM 34.3572 -116.8742 286° West 443 510 38,000  Level Los Angeles Center
12:23AM 34.3900 -117.0183 285° West 444 511 38,000  Level Los Angeles Center
12:24AM 34.4242 -117.1631 286° West 447 514 38,000  Level Los Angeles Center
12:25AM 34.4581 -117.3067 286° West 443 510 38,000  Level Los Angeles Center
12:26AM 34.4906 -117.4528 285° West 446 513 38,000  Level Los Angeles Center
12:27AM 34.5242 -117.5975 286° West 445 512 38,000  Level Los Angeles Center
12:28AM 34.5578 -117.7436 286° West 448 516 38,000  Level Los Angeles Center
12:29AM 34.5903 -117.8892 285° West 447 514 38,000  Level Los Angeles Center
12:30AM 34.6161 -118.0064 285° West 449 517 38,000 -360 Level Los Angeles Center
12:31AM 34.6950 -118.1564 303° West 441 507 37,300 -1,140 Descending Los Angeles Center
12:32AM 34.7728 -118.2728 309° West 441 507 35,700 -1,620 Descending Los Angeles Center
12:33AM 34.8700 -118.4100 311° West 443 510 34,000 -1,860 Descending Los Angeles Center
12:34AM 34.9517 -118.5294 310° West 444 511 31,900 -1,980 Descending Los Angeles Center
12:35AM 35.0456 -118.6281 319° Northwest 465 535 30,000 -1,920 Descending Los Angeles Center
12:36AM 35.1661 -118.6867 338° Northwest 469 540 28,100 -1,860 Descending Los Angeles Center
12:37AM 35.2942 -118.7428 340° North 485 558 26,200 -1,920 Descending Los Angeles Center
12:38AM 35.4194 -118.7983 340° North 483 556 24,200 -1,920 Descending Los Angeles Center
12:39AM 35.5425 -118.8544 340° North 478 550 22,300 -1,920 Descending Los Angeles Center
12:40AM 35.6678 -118.9117 340° North 480 552 20,300 -1,920 Descending Los Angeles Center
12:41AM 35.7911 -118.9669 340° North 478 550 18,400 -1,920 Descending Los Angeles Center
12:42AM 35.9114 -119.0217 340° North 470 541 16,400 -2,100 Descending Los Angeles Center
12:43AM 36.0200 -119.0736 339° North 441 507 14,500 -1,380 Descending Oakland Center
12:44AM 36.1236 -119.1225 339° North 403 464 13,900 -420 Descending Oakland Center
12:45AM 36.2144 -119.1664 339° North 356 410 13,700 -600 Descending Oakland Center
12:46AM 36.2975 -119.2056 339° North 325 374 12,700 -1,140 Descending Oakland Center
12:47AM 36.3769 -119.2433 339° North 309 356 11,500 -1,140 Descending Oakland Center
12:48AM 36.4511 -119.2792 339° North 290 334 10,500 -1,140 Descending Oakland Center
12:49AM 36.5244 -119.3147 339° North 284 327 9,200 -1,620 Descending Oakland Center
12:50AM 36.5858 -119.3819 319° Northwest 299 344 7,300 -2,040 Descending Oakland Center
12:51AM 36.6306 -119.4644 304° West 290 334 5,100 -1,920 Descending Oakland Center
12:52AM 36.6675 -119.5253 307° West 228 262 3,500 -1,380 Descending Oakland Center
12:53AM 36.7086 -119.5975 305° West 216 249 2,300 -840 Descending Oakland Center
12:54AM 36.7328 -119.6444 303° West 166 191 1,800 -660 Descending Oakland Center
12:55AM 36.7525 -119.6789 306° West 127 146 1,000 -720 Descending Oakland Center
12:56AM 36.7697 -119.7078 307° West 109 125 400 -600 Descending Oakland Center
12:58AM 36.7667 -119.7167 297° West  Level FlightAware Approximate
01:05AM 36.7766 -119.7188 297° West  Level Estimated